Main page
METAR-TAF:

METAR-TAF

Airports :

Charles de Gaulle Airport

Paris-Charles De Gaulle, France

latitude: 49-01N, longitude: 002-32E, elevation: 118 m

Current weather observation

The report was made 40 minutes ago, at 11:00 UTC
Wind 4 kt from variable directions
Temperature 28°C
Humidity 40%
Pressure 1018 hPa
Visibility 10 km or more
no clouds below 1500 m and no cumulonimbus

METAR: LFPG 231100Z VRB04KT CAVOK 28/13 Q1018 NOSIG

Time: 13:40 (11:40 UTC)

Forecast

The report was made 40 minutes ago, at 11:00 UTC
Forecast valid from 23 at 12 UTC to 24 at 18 UTC
Wind 3 kt from variable directions
Visibility 10 km or more
no clouds below 1500 m and no cumulonimbus
Probability 30% :
Temporary
from 24 at 14 UTC to 24 at 18 UTC
Wind 15 kt from the Northeast with gusts up to 25 kt
Visibility: 4000 m
Scattered clouds at a height of 5000 ft, Cumulonimbus.
rain showers

TAF: LFPG 231100Z 2312/2418 VRB03KT CAVOK TX31/2315Z TN21/2403Z PROB30 TEMPO 2414/2418 05015G25KT 4000 SHRA SCT050CB

Weather observations and forecasts of more than 4000 airports (METAR and TAF reports).

The available stations are represented by yellow and red dots on the map.

Hover mouse over dot to see the name of the station.

Then click to see weather observations and forecasts.

To change the map : click on the green buttons with a black cross to zoom in, on the green button with a dash to zoom out, or on the green arrows for adjacent maps.


METAR-TAF: